Time;durP1;ratioP1;P1;durP2;ratioP2;P2;SDS_P1;SDS_P2;PMS_P1;PMS_P2;Temp;Humidity;BMP_temperature;BMP_pressure;BME280_temperature;BME280_humidity;BME280_pressure;Samples;Min_cycle;Max_cycle;Signal;HPM_P1;HPM_P2
2023/01/11 00:00:58;;;;;;;3.22;1.70;;;;;;;;;;5031728;27;20429;-72
2023/01/11 00:03:25;;;;;;;5.75;1.63;;;;;;;;;;4951120;28;20152;-73
2023/01/11 00:06:05;;;;;;;;;;;;;;;;;;;;;
2023/01/11 00:08:32;;;;;;;3.92;1.63;;;;;;;;;;4903062;28;20039;-72
2023/01/11 00:15:09;;;;;;;3.10;1.50;;;;;;;;;;5038942;28;20256;-74
2023/01/11 00:17:35;;;;;;;3.75;1.40;;;;;;;;;;5092048;28;20177;-74
2023/01/11 00:20:03;;;;;;;3.58;1.60;;;;;;;;;;5088405;28;20075;-70
2023/01/11 00:22:30;;;;;;;4.55;1.63;;;;;;;;;;5075141;28;20051;-75
2023/01/11 00:30:08;;;;;;;3.28;1.70;;;;;;;;;;5034009;27;20602;-71
2023/01/11 00:32:35;;;;;;;3.80;1.40;;;;;;;;;;4967813;28;20049;-70
2023/01/11 00:35:02;;;;;;;3.22;1.35;;;;;;;;;;4939925;28;20046;-76
2023/01/11 00:37:31;;;;;;;3.85;1.70;;;;;;;;;;4909624;28;20082;-71
2023/01/11 00:39:57;;;;;;;;;;;;;;;;;;4914117;28;20134;-71
2023/01/11 00:48:00;;;;;;;7.88;1.67;;;;;;;;;;4959973;28;20185;-75
2023/01/11 00:50:29;;;;;;;3.17;1.30;;;;;;;;;;4950029;28;20057;-72
2023/01/11 00:58:04;;;;;;;5.25;1.40;;;;;;;;;;4932977;28;20421;-70
2023/01/11 01:00:32;;;;;;;6.53;1.45;;;;;;;;;;4876797;29;20052;-70
2023/01/11 01:02:59;;;;;;;;;;;;;;;;;;4860684;29;20049;-74
2023/01/11 01:08:10;;;;;;;4.97;1.60;;;;;;;;;;5044742;27;20418;-75
2023/01/11 01:10:37;;;;;;;1.70;1.13;;;;;;;;;;4974672;28;20041;-75
2023/01/11 01:15:49;;;;;;;2.95;1.25;;;;;;;;;;4857093;29;20055;-73
2023/01/11 01:18:16;;;;;;;4.20;1.48;;;;;;;;;;4903916;28;20046;-72
2023/01/11 01:20:42;;;;;;;3.42;1.33;;;;;;;;;;4960327;28;20077;-77
2023/01/11 01:23:11;;;;;;;3.25;1.50;;;;;;;;;;4958452;28;20065;-73
2023/01/11 01:25:38;;;;;;;5.88;1.50;;;;;;;;;;4943272;28;20092;-74
2023/01/11 01:28:05;;;;;;;1.98;1.13;;;;;;;;;;4994124;28;20062;-76
2023/01/11 01:30:32;;;;;;;3.75;1.20;;;;;;;;;;4994100;28;20135;-75
2023/01/11 01:32:59;;;;;;;4.32;1.42;;;;;;;;;;4974984;28;20058;-73
2023/01/11 01:38:09;;;;;;;3.55;1.20;;;;;;;;;;5012284;27;20421;-72
2023/01/11 01:40:36;;;;;;;;;;;;;;;;;;4979245;28;20516;-73
2023/01/11 01:43:02;;;;;;;3.00;1.30;;;;;;;;;;4951129;28;19921;-74
2023/01/11 01:50:42;;;;;;;2.45;1.27;;;;;;;;;;5054940;27;20486;-73
2023/01/11 01:53:10;;;;;;;2.35;1.10;;;;;;;;;;5039931;28;20533;-76
2023/01/11 01:55:40;;;;;;;2.65;1.17;;;;;;;;;;4983272;28;20050;-77
2023/01/11 01:58:10;;;;;;;2.25;1.00;;;;;;;;;;4975627;28;20077;-73
2023/01/11 02:00:38;;;;;;;4.15;1.10;;;;;;;;;;5016989;28;20045;-75
2023/01/11 02:03:22;;;;;;;6.35;1.25;;;;;;;;;;4956202;28;20050;-73
2023/01/11 02:05:50;;;;;;;2.17;0.93;;;;;;;;;;4938434;28;20058;-74
2023/01/11 02:08:20;;;;;;;3.80;1.02;;;;;;;;;;5024288;28;20053;-77
2023/01/11 02:10:47;;;;;;;4.43;1.40;;;;;;;;;;5010649;28;20118;-74
2023/01/11 02:13:14;;;;;;;2.58;1.05;;;;;;;;;;5008584;28;20045;-74
2023/01/11 02:15:41;;;;;;;2.35;1.00;;;;;;;;;;5026536;28;20049;-73
2023/01/11 02:18:10;;;;;;;2.42;1.02;;;;;;;;;;4995028;28;20077;-76
2023/01/11 02:20:55;;;;;;;3.03;1.10;;;;;;;;;;4996004;28;20144;-75
2023/01/11 02:23:44;;;;;;;2.05;1.10;;;;;;;;;;5009501;28;20080;-75
2023/01/11 02:26:23;;;;;;;2.92;1.20;;;;;;;;;;5015006;28;20052;-71
2023/01/11 02:28:56;;;;;;;2.42;1.08;;;;;;;;;;5003198;28;20053;-75
2023/01/11 02:31:28;;;;;;;1.85;0.77;;;;;;;;;;4971011;28;20056;-71
2023/01/11 02:36:45;;;;;;;1.17;0.73;;;;;;;;;;4984308;27;20486;-71
2023/01/11 02:39:16;;;;;;;2.05;1.10;;;;;;;;;;5016805;28;20120;-74
2023/01/11 02:47:21;;;;;;;1.67;0.90;;;;;;;;;;5009982;28;20132;-73
2023/01/11 02:49:52;;;;;;;1.83;0.80;;;;;;;;;;5023972;28;20060;-73
2023/01/11 02:52:26;;;;;;;1.77;0.80;;;;;;;;;;5029944;28;20067;-70
2023/01/11 02:54:55;;;;;;;1.25;0.80;;;;;;;;;;4991078;28;20044;-72
2023/01/11 02:57:22;;;;;;;1.98;0.80;;;;;;;;;;5003807;28;20053;-72
2023/01/11 02:59:50;;;;;;;1.70;0.80;;;;;;;;;;5005600;28;20045;-71
2023/01/11 03:02:17;;;;;;;1.08;0.70;;;;;;;;;;5010025;28;20061;-72
2023/01/11 03:04:44;;;;;;;1.52;0.80;;;;;;;;;;4913837;28;20108;-70
2023/01/11 03:07:15;;;;;;;2.55;0.90;;;;;;;;;;5012416;28;20128;-74
2023/01/11 03:09:51;;;;;;;0.80;0.80;;;;;;;;;;5040944;28;20139;-72
2023/01/11 03:15:22;;;;;;;1.73;1.00;;;;;;;;;;5023470;28;21398;-71
2023/01/11 03:17:54;;;;;;;1.40;0.80;;;;;;;;;;5026884;28;20049;-72
2023/01/11 03:20:21;;;;;;;2.42;0.80;;;;;;;;;;5048337;28;20693;-74
2023/01/11 03:22:53;;;;;;;1.63;0.90;;;;;;;;;;5030426;28;20139;-73
2023/01/11 03:25:23;;;;;;;2.67;0.80;;;;;;;;;;5005337;28;20049;-73
2023/01/11 03:27:53;;;;;;;1.17;0.80;;;;;;;;;;5015630;28;20053;-72
2023/01/11 03:30:26;;;;;;;0.95;0.80;;;;;;;;;;5009197;28;20052;-72
2023/01/11 03:32:55;;;;;;;1.00;0.77;;;;;;;;;;5031296;28;20057;-71
2023/01/11 03:35:26;;;;;;;0.73;0.68;;;;;;;;;;5009244;28;20041;-74
2023/01/11 03:37:54;;;;;;;1.23;0.90;;;;;;;;;;5029989;28;20044;-71
2023/01/11 03:40:21;;;;;;;;;;;;;;;;;;5007745;28;20061;-73
2023/01/11 03:43:13;;;;;;;2.85;1.10;;;;;;;;;;5020200;28;19955;-72
2023/01/11 03:45:45;;;;;;;1.00;0.70;;;;;;;;;;5047513;28;20288;-69
2023/01/11 03:48:14;;;;;;;1.13;0.80;;;;;;;;;;5015720;28;20502;-72
2023/01/11 03:50:41;;;;;;;0.85;0.60;;;;;;;;;;5039272;28;20059;-74
2023/01/11 03:53:08;;;;;;;4.03;0.82;;;;;;;;;;5021756;28;20279;-69
2023/01/11 03:55:38;;;;;;;1.92;1.00;;;;;;;;;;5001068;28;20057;-72
2023/01/11 03:58:07;;;;;;;1.77;0.90;;;;;;;;;;4998669;28;20053;-72
2023/01/11 04:00:35;;;;;;;0.65;0.65;;;;;;;;;;5024748;28;20049;-71
2023/01/11 04:03:02;;;;;;;1.52;0.88;;;;;;;;;;5019306;28;20052;-72
2023/01/11 04:05:29;;;;;;;1.20;0.70;;;;;;;;;;4998343;28;20057;-72
2023/01/11 04:07:55;;;;;;;0.95;0.70;;;;;;;;;;5040367;28;20053;-76
2023/01/11 04:10:22;;;;;;;1.95;0.93;;;;;;;;;;5023468;28;20126;-73
2023/01/11 04:12:49;;;;;;;2.08;1.00;;;;;;;;;;4946563;28;20116;-73
2023/01/11 04:17:43;;;;;;;2.22;1.10;;;;;;;;;;4882640;28;20042;-74
2023/01/11 04:25:17;;;;;;;1.80;0.73;;;;;;;;;;4928129;27;20509;-76
2023/01/11 04:27:44;;;;;;;0.93;0.80;;;;;;;;;;4967739;28;20129;-74
2023/01/11 04:30:11;;;;;;;1.63;1.00;;;;;;;;;;4979676;28;20108;-76
2023/01/11 04:32:38;;;;;;;0.93;0.80;;;;;;;;;;4979583;28;20074;-73
2023/01/11 04:35:07;;;;;;;1.23;0.90;;;;;;;;;;4911918;28;20061;-75
2023/01/11 04:42:42;;;;;;;2.53;1.00;;;;;;;;;;4968932;27;20424;-71
2023/01/11 04:45:09;;;;;;;2.03;1.02;;;;;;;;;;4893282;28;20447;-71
2023/01/11 04:47:36;;;;;;;2.28;1.15;;;;;;;;;;4985786;28;20145;-72
2023/01/11 04:50:07;;;;;;;1.60;1.13;;;;;;;;;;4961470;28;20050;-74
2023/01/11 04:52:34;;;;;;;2.13;1.23;;;;;;;;;;4967816;28;20149;-72
2023/01/11 04:55:00;;;;;;;2.47;1.25;;;;;;;;;;4926645;28;20050;-76
2023/01/11 04:57:27;;;;;;;3.28;1.30;;;;;;;;;;4995533;28;20515;-72
2023/01/11 04:59:55;;;;;;;2.00;1.05;;;;;;;;;;4982057;28;20049;-71
2023/01/11 05:02:22;;;;;;;3.15;1.30;;;;;;;;;;4992267;28;20091;-74
2023/01/11 05:04:49;;;;;;;2.58;1.27;;;;;;;;;;4982616;28;20152;-74
2023/01/11 05:07:15;;;;;;;4.82;1.60;;;;;;;;;;4995796;28;22434;-71
2023/01/11 05:09:42;;;;;;;4.85;1.60;;;;;;;;;;4981185;28;20065;-71
2023/01/11 05:12:08;;;;;;;4.13;1.38;;;;;;;;;;4986791;28;20093;-71
2023/01/11 05:14:35;;;;;;;4.70;1.52;;;;;;;;;;4945372;28;20064;-73
2023/01/11 05:17:03;;;;;;;2.78;1.20;;;;;;;;;;4973747;28;20054;-74
2023/01/11 05:19:30;;;;;;;2.30;1.30;;;;;;;;;;4964578;28;20058;-70
2023/01/11 05:21:57;;;;;;;3.63;1.45;;;;;;;;;;4958108;28;20051;-74
2023/01/11 05:24:23;;;;;;;2.95;1.33;;;;;;;;;;4963517;28;20054;-72
2023/01/11 05:26:52;;;;;;;1.83;1.13;;;;;;;;;;4954553;28;20057;-74
2023/01/11 05:29:19;;;;;;;3.95;1.35;;;;;;;;;;4972570;28;21204;-72
2023/01/11 05:31:46;;;;;;;2.40;1.40;;;;;;;;;;4983248;28;20057;-70
2023/01/11 05:34:15;;;;;;;2.28;1.15;;;;;;;;;;4963581;28;20057;-72
2023/01/11 05:36:42;;;;;;;3.70;1.40;;;;;;;;;;4964431;28;20066;-70
2023/01/11 05:39:10;;;;;;;3.67;1.70;;;;;;;;;;4967024;28;20076;-71
2023/01/11 05:41:37;;;;;;;1.95;1.10;;;;;;;;;;4979487;28;20060;-72
2023/01/11 05:46:53;;;;;;;3.78;1.30;;;;;;;;;;4955988;28;20149;-73
2023/01/11 05:49:22;;;;;;;3.38;1.17;;;;;;;;;;4940345;28;20050;-71
2023/01/11 05:51:49;;;;;;;4.75;1.40;;;;;;;;;;4940401;28;20062;-73
2023/01/11 05:59:22;;;;;;;4.18;1.60;;;;;;;;;;4982679;28;20458;-71
2023/01/11 06:01:49;;;;;;;3.55;1.40;;;;;;;;;;4926329;28;20074;-75
2023/01/11 06:09:23;;;;;;;5.22;1.48;;;;;;;;;;5019983;27;20425;-73
2023/01/11 06:11:51;;;;;;;8.23;1.67;;;;;;;;;;4982947;28;20049;-74
2023/01/11 06:14:20;;;;;;;6.32;1.48;;;;;;;;;;4989360;28;20052;-72
2023/01/11 06:16:50;;;;;;;4.20;1.45;;;;;;;;;;5033202;28;20042;-75
2023/01/11 06:19:19;;;;;;;6.38;1.50;;;;;;;;;;5013774;28;20053;-72
2023/01/11 06:21:46;;;;;;;5.95;1.80;;;;;;;;;;4991874;28;20041;-72
2023/01/11 06:24:13;;;;;;;5.03;2.00;;;;;;;;;;4997202;28;20056;-71
2023/01/11 06:26:42;;;;;;;8.23;2.17;;;;;;;;;;5019949;28;20048;-74
2023/01/11 06:29:13;;;;;;;5.35;1.60;;;;;;;;;;4896442;28;20048;-73
2023/01/11 06:31:40;;;;;;;5.53;1.70;;;;;;;;;;5000596;28;20049;-71
2023/01/11 06:34:06;;;;;;;9.25;1.95;;;;;;;;;;5008115;28;20056;-72
2023/01/11 06:36:33;;;;;;;9.32;1.85;;;;;;;;;;4980624;28;20048;-74
2023/01/11 06:39:00;;;;;;;7.43;1.73;;;;;;;;;;5003573;28;20043;-74
2023/01/11 06:41:27;;;;;;;5.20;1.70;;;;;;;;;;4918693;28;20085;-72
2023/01/11 06:49:10;;;;;;;6.47;1.67;;;;;;;;;;4978961;27;20813;-73
2023/01/11 06:51:37;;;;;;;9.07;1.88;;;;;;;;;;4937273;28;20062;-76
2023/01/11 06:54:04;;;;;;;10.15;1.98;;;;;;;;;;4919283;28;20051;-71
2023/01/11 06:56:31;;;;;;;7.88;2.00;;;;;;;;;;4825053;29;20071;-76
2023/01/11 06:59:01;;;;;;;11.02;1.63;;;;;;;;;;4909488;28;20094;-75
2023/01/11 07:01:29;;;;;;;8.27;1.88;;;;;;;;;;4903877;29;20060;-75
2023/01/11 07:03:56;;;;;;;6.22;1.42;;;;;;;;;;4922426;28;20061;-74
2023/01/11 07:06:24;;;;;;;6.88;1.45;;;;;;;;;;4876196;28;20114;-75
2023/01/11 07:08:51;;;;;;;5.78;1.83;;;;;;;;;;4942023;28;20403;-73
2023/01/11 07:11:18;;;;;;;10.35;1.83;;;;;;;;;;4942974;28;20142;-77
2023/01/11 07:13:57;;;;;;;7.57;1.83;;;;;;;;;;4933115;28;20173;-74
2023/01/11 07:16:24;;;;;;;8.82;1.42;;;;;;;;;;4873566;28;20054;-74
2023/01/11 07:18:51;;;;;;;5.95;1.63;;;;;;;;;;4939687;28;20050;-76
2023/01/11 07:26:27;;;;;;;8.52;1.60;;;;;;;;;;5025430;27;20140;-71
2023/01/11 07:28:56;;;;;;;4.30;1.40;;;;;;;;;;4984467;28;20041;-73
2023/01/11 07:31:23;;;;;;;6.82;1.40;;;;;;;;;;4972915;28;20144;-75
2023/01/11 07:33:50;;;;;;;7.20;1.65;;;;;;;;;;4950335;28;20120;-72
2023/01/11 07:39:03;;;;;;;9.32;1.77;;;;;;;;;;4989373;27;20499;-75
2023/01/11 08:54:18;;;;;;;7.05;1.33;;;;;;;;;;5973359;22;5268590;-75
2023/01/11 09:02:01;;;;;;;9.73;1.65;;;;;;;;;;5077038;27;20414;-71
2023/01/11 09:04:28;;;;;;;13.15;1.75;;;;;;;;;;4987448;28;20053;-70
2023/01/11 09:06:58;;;;;;;4.68;1.38;;;;;;;;;;4956640;28;20079;-73
2023/01/11 09:09:25;;;;;;;7.97;1.73;;;;;;;;;;4974573;28;20060;-70
2023/01/11 09:11:57;;;;;;;6.80;1.42;;;;;;;;;;5012033;28;20487;-72
2023/01/11 09:14:28;;;;;;;8.40;1.70;;;;;;;;;;4994520;28;20057;-72
2023/01/11 09:16:57;;;;;;;9.00;2.13;;;;;;;;;;4936192;28;20042;-70
2023/01/11 09:19:25;;;;;;;8.48;1.42;;;;;;;;;;4928216;28;20055;-70
2023/01/11 10:37:17;;;;;;;8.07;1.40;;;;;;;;;;5967469;22;4546244;-71
2023/01/11 10:40:13;;;;;;;7.25;1.17;;;;;;;;;;6173676;23;20266;-71
2023/01/11 10:42:43;;;;;;;7.95;1.40;;;;;;;;;;6197929;23;20101;-71
2023/01/11 10:45:14;;;;;;;7.82;1.08;;;;;;;;;;6181245;23;20040;-72
2023/01/11 10:47:48;;;;;;;10.45;1.40;;;;;;;;;;6100987;23;20025;-69
2023/01/11 10:50:28;;;;;;;10.03;1.57;;;;;;;;;;6046797;23;20082;-71
2023/01/11 11:09:29;;;;;;;9.25;1.65;;;;;;;;;;4983298;28;20460;-74
2023/01/11 11:12:19;;;;;;;11.07;1.30;;;;;;;;;;4967011;28;20058;-74
2023/01/11 11:15:04;;;;;;;11.40;1.27;;;;;;;;;;4947018;28;20063;-76
2023/01/11 11:17:59;;;;;;;7.22;1.02;;;;;;;;;;4828308;29;20057;-74
2023/01/11 13:11:51;;;;;;;16.75;1.67;;;;;;;;;;6131302;22;1703250;-76
2023/01/11 13:14:33;;;;;;;15.13;1.83;;;;;;;;;;6221905;23;20023;-75
2023/01/11 13:37:38;;;;;;;5.85;0.90;;;;;;;;;;6288253;22;1569215;-72
2023/01/11 13:40:15;;;;;;;13.18;1.67;;;;;;;;;;6197493;22;20027;-75
2023/01/11 13:42:49;;;;;;;12.15;1.60;;;;;;;;;;6194102;22;20101;-74
2023/01/11 13:45:21;;;;;;;15.55;1.80;;;;;;;;;;6198835;22;20019;-73
2023/01/11 13:47:50;;;;;;;12.25;2.15;;;;;;;;;;6176919;22;20103;-73
2023/01/11 13:50:20;;;;;;;9.23;1.30;;;;;;;;;;6162464;23;20028;-76
2023/01/11 13:52:58;;;;;;;13.20;1.85;;;;;;;;;;6202499;22;20019;-71
2023/01/11 15:23:49;;;;;;;8.75;1.85;;;;;;;;;;5028617;27;20453;-74
2023/01/11 15:26:17;;;;;;;13.50;1.67;;;;;;;;;;4980371;28;20148;-72
2023/01/11 15:28:44;;;;;;;;;;;;;;;;;;4919387;28;20419;-71
2023/01/11 15:31:26;;;;;;;5.57;1.25;;;;;;;;;;4875767;28;19936;-73
2023/01/11 15:33:56;;;;;;;9.80;1.50;;;;;;;;;;4890194;28;20075;-72
2023/01/11 15:36:25;;;;;;;10.63;2.05;;;;;;;;;;4883877;29;20104;-72
2023/01/11 15:38:57;;;;;;;12.18;1.50;;;;;;;;;;4869928;28;20081;-74
2023/01/11 15:44:29;;;;;;;10.65;1.58;;;;;;;;;;4913705;28;20070;-72
2023/01/11 15:47:13;;;;;;;11.23;1.42;;;;;;;;;;4932713;28;20050;-72
2023/01/11 15:49:58;;;;;;;15.13;1.65;;;;;;;;;;4911759;28;20053;-69
2023/01/11 15:52:50;;;;;;;12.88;2.00;;;;;;;;;;4994374;28;20041;-72
2023/01/11 15:55:32;;;;;;;9.00;1.55;;;;;;;;;;5006587;28;20061;-71
2023/01/11 15:58:11;;;;;;;8.85;1.48;;;;;;;;;;4947755;28;20041;-70
2023/01/11 16:00:56;;;;;;;12.77;1.20;;;;;;;;;;4954244;28;20060;-76
2023/01/11 16:24:29;;;;;;;6.30;1.58;;;;;;;;;;6197526;21;1533770;-77
2023/01/11 16:26:59;;;;;;;7.72;1.25;;;;;;;;;;6140204;23;20048;-78
2023/01/11 16:29:29;;;;;;;6.18;1.15;;;;;;;;;;6038786;23;20030;-78
2023/01/11 16:31:59;;;;;;;9.45;1.67;;;;;;;;;;6038716;23;20099;-75
2023/01/11 16:34:26;;;;;;;12.90;1.65;;;;;;;;;;6132822;23;20022;-76
2023/01/11 16:36:57;;;;;;;6.67;1.30;;;;;;;;;;6117112;23;20096;-75
2023/01/11 16:39:24;;;;;;;6.63;1.48;;;;;;;;;;6105874;23;20048;-75
2023/01/11 16:41:54;;;;;;;7.53;1.38;;;;;;;;;;6093945;23;20040;-73
2023/01/11 16:44:24;;;;;;;10.40;1.50;;;;;;;;;;6106668;23;20092;-74
2023/01/11 16:47:06;;;;;;;10.65;1.45;;;;;;;;;;6082252;23;20029;-77
2023/01/11 16:49:33;;;;;;;9.60;1.38;;;;;;;;;;6089504;23;20160;-74
2023/01/11 16:52:00;;;;;;;6.47;1.65;;;;;;;;;;6158852;23;20103;-72
2023/01/11 16:54:29;;;;;;;8.18;1.20;;;;;;;;;;6162228;23;20025;-75
2023/01/11 16:56:57;;;;;;;12.20;1.70;;;;;;;;;;6172510;23;20035;-75
2023/01/11 16:59:29;;;;;;;9.68;1.45;;;;;;;;;;6156338;23;20085;-76
2023/01/11 17:01:57;;;;;;;5.55;1.10;;;;;;;;;;6195983;23;20055;-76
2023/01/11 17:04:29;;;;;;;8.93;1.20;;;;;;;;;;6115726;23;20028;-73
2023/01/11 17:06:57;;;;;;;5.80;1.40;;;;;;;;;;6079751;23;20055;-73
2023/01/11 17:14:23;;;;;;;6.93;1.30;;;;;;;;;;6026742;23;20017;-74
2023/01/11 17:16:51;;;;;;;7.63;1.00;;;;;;;;;;6104584;23;20029;-73
2023/01/11 17:19:19;;;;;;;7.45;1.30;;;;;;;;;;6166465;23;20028;-74
2023/01/11 17:21:47;;;;;;;4.28;1.25;;;;;;;;;;6183697;23;20171;-73
2023/01/11 17:24:15;;;;;;;7.05;1.42;;;;;;;;;;6148356;23;20060;-72
2023/01/11 17:26:43;;;;;;;14.38;1.45;;;;;;;;;;6157140;23;20024;-72
2023/01/11 17:29:12;;;;;;;8.95;1.30;;;;;;;;;;6142385;23;20028;-73
2023/01/11 17:31:39;;;;;;;;;;;;;;;;;;6121792;23;20029;-73
2023/01/11 17:34:13;;;;;;;8.57;1.20;;;;;;;;;;6167452;23;19918;-76
2023/01/11 17:36:40;;;;;;;9.77;2.17;;;;;;;;;;6162446;23;20031;-76
2023/01/11 17:39:08;;;;;;;6.25;1.30;;;;;;;;;;6137970;23;20096;-72
2023/01/11 17:47:06;;;;;;;6.57;1.30;;;;;;;;;;6160980;22;20028;-73
2023/01/11 17:49:35;;;;;;;16.65;1.48;;;;;;;;;;6167790;22;20023;-70
2023/01/11 17:52:09;;;;;;;5.70;1.02;;;;;;;;;;6187738;23;20032;-73
2023/01/11 17:54:39;;;;;;;5.22;0.90;;;;;;;;;;6135759;23;20166;-75
2023/01/11 18:02:52;;;;;;;7.70;1.10;;;;;;;;;;4988040;27;1699131;-75
2023/01/11 18:05:20;;;;;;;8.85;1.50;;;;;;;;;;4971106;28;21236;-74
2023/01/11 18:07:48;;;;;;;5.53;1.02;;;;;;;;;;5018951;28;20048;-75
2023/01/11 18:10:19;;;;;;;9.55;1.90;;;;;;;;;;4978465;28;20057;-78
2023/01/11 18:12:55;;;;;;;8.18;1.52;;;;;;;;;;4990913;28;20045;-75
2023/01/11 18:15:27;;;;;;;12.70;1.58;;;;;;;;;;4987554;28;20061;-72
2023/01/11 18:17:57;;;;;;;9.30;1.30;;;;;;;;;;4949994;28;20053;-74
2023/01/11 18:23:18;;;;;;;7.38;1.30;;;;;;;;;;5042460;27;20670;-72
2023/01/11 18:25:46;;;;;;;11.70;1.67;;;;;;;;;;4978947;28;20054;-73
2023/01/11 18:28:26;;;;;;;7.10;1.30;;;;;;;;;;4991217;28;20057;-73
2023/01/11 18:30:55;;;;;;;11.30;1.58;;;;;;;;;;4968972;28;20057;-76
2023/01/11 18:33:23;;;;;;;10.05;1.33;;;;;;;;;;4970672;28;20081;-75
2023/01/11 18:35:51;;;;;;;7.55;1.65;;;;;;;;;;4966172;28;20421;-75
2023/01/11 18:38:20;;;;;;;6.07;1.20;;;;;;;;;;4956808;28;20058;-73
2023/01/11 18:40:48;;;;;;;8.25;1.40;;;;;;;;;;4908843;28;20054;-75
2023/01/11 18:43:14;;;;;;;10.18;1.48;;;;;;;;;;4903145;28;20050;-71
2023/01/11 18:45:41;;;;;;;9.93;1.45;;;;;;;;;;4926121;28;20087;-71
2023/01/11 18:48:10;;;;;;;9.43;1.70;;;;;;;;;;4932248;28;20050;-76
2023/01/11 18:53:22;;;;;;;10.38;1.30;;;;;;;;;;5036332;27;1493054;-75
2023/01/11 18:55:49;;;;;;;6.53;1.00;;;;;;;;;;5050165;28;20059;-78
2023/01/11 18:58:17;;;;;;;7.47;1.45;;;;;;;;;;5044781;28;20059;-74
2023/01/11 19:00:47;;;;;;;11.35;1.38;;;;;;;;;;4998583;28;20045;-75
2023/01/11 19:08:21;;;;;;;6.50;1.23;;;;;;;;;;4970332;28;20871;-73
2023/01/11 19:13:30;;;;;;;8.10;1.20;;;;;;;;;;5016834;27;20538;-74
2023/01/11 19:16:00;;;;;;;6.20;1.33;;;;;;;;;;4889575;28;20086;-77
2023/01/11 19:20:52;;;;;;;5.13;1.20;;;;;;;;;;4829118;29;20638;-73
2023/01/11 19:23:19;;;;;;;4.47;1.40;;;;;;;;;;4834181;29;20052;-72
2023/01/11 19:25:46;;;;;;;8.15;1.38;;;;;;;;;;4869661;29;20056;-74
2023/01/11 19:30:40;;;;;;;6.95;1.25;;;;;;;;;;4838736;29;20142;-71
2023/01/11 19:33:07;;;;;;;12.70;1.63;;;;;;;;;;4873349;28;20448;-76
2023/01/11 19:35:34;;;;;;;16.63;1.77;;;;;;;;;;4899567;28;20059;-74
2023/01/11 19:38:00;;;;;;;17.05;1.60;;;;;;;;;;4931136;28;20058;-76
2023/01/11 19:40:27;;;;;;;7.25;1.70;;;;;;;;;;4930751;28;20063;-76
2023/01/11 19:42:54;;;;;;;12.85;2.13;;;;;;;;;;4933135;28;20054;-76
2023/01/11 19:45:39;;;;;;;6.75;1.35;;;;;;;;;;4922877;28;20174;-73
2023/01/11 19:53:31;;;;;;;8.93;2.08;;;;;;;;;;5040038;27;20993;-75
2023/01/11 19:55:57;;;;;;;;;;;;;;;;;;5009738;28;20116;-72
2023/01/11 19:58:25;;;;;;;7.20;1.35;;;;;;;;;;5041629;28;19931;-74
2023/01/11 20:00:56;;;;;;;11.60;1.83;;;;;;;;;;4993156;28;20131;-74
2023/01/11 20:03:23;;;;;;;9.35;1.73;;;;;;;;;;5014544;28;20341;-75
2023/01/11 20:05:50;;;;;;;7.53;1.58;;;;;;;;;;5023282;28;20052;-76
2023/01/11 20:08:17;;;;;;;13.57;1.77;;;;;;;;;;5025968;28;20056;-76
2023/01/11 20:10:46;;;;;;;9.07;1.45;;;;;;;;;;4971818;28;20062;-78
2023/01/11 20:18:41;;;;;;;6.32;1.50;;;;;;;;;;4939721;28;20654;-78
2023/01/11 20:21:09;;;;;;;6.70;1.58;;;;;;;;;;4932926;28;20376;-76
2023/01/11 20:26:03;;;;;;;11.30;1.48;;;;;;;;;;4927271;28;20533;-77
2023/01/11 20:28:30;;;;;;;7.35;1.30;;;;;;;;;;4959265;28;20057;-75
2023/01/11 20:46:43;;;;;;;6.28;1.35;;;;;;;;;;6006045;22;2983511;-78
2023/01/11 23:19:01;;;;;;;7.30;1.27;;;;;;;;;;6074043;22;3799465;-74
2023/01/11 23:39:53;;;;;;;4.60;1.30;;;;;;;;;;5006420;27;20433;-78
